Latest Weather Observations for Yeppoon

IDQ60801

Issued at 12:35 pm EST Thursday 27 November 2014 (issued every 30 minutes, with the page automatically refreshed every 10 minutes)

About weather observations | Map of weather stations | Latest weather observations for QLD | Other Formats
Station Details ID: 033294 Name: YEPPOON THE ESPLANADE Lat: -23.14 Lon: 150.75 Height: 5.5 m
Data from the previous 72 hours. | See also: Recent months at Yeppoon
Date/Time
EST
Temp
°C
App
Temp
°C
Dew
Point
Rel
Hum
%
Delta-T
°C
Wind Press
QNH
hPa
Press
MSL
hPa
Rain
since 9 am
mm
Dir
 
Spd
km/h
Gust
km/h
Spd
kts
Gust
kts
27/12:30pm 28.4 29.6 20.0 60 5.5 ENE 13 19 7 10 1013.6 1013.6 0.0
27/12:00pm 28.4 30.0 20.7 63 5.1 E 13 19 7 10 1014.2 1014.2 0.0
27/11:30am 29.0 30.7 21.0 62 5.3 ENE 13 17 7 9 1014.5 1014.5 0.0
27/11:00am 28.5 30.2 21.0 64 5.0 ENE 13 19 7 10 1014.8 1014.8 0.0
27/10:30am 28.7 30.4 21.0 63 5.1 ENE 13 17 7 9 1015.2 1015.2 0.0
27/10:00am 28.1 29.8 21.0 65 4.7 E 13 19 7 10 1015.5 1015.5 0.0
27/09:30am 27.6 29.3 20.9 67 4.4 E 13 19 7 10 1015.6 1015.6 0.0
27/09:00am 27.6 29.3 20.9 67 4.4 ENE 13 20 7 11 1015.6 1015.6 0.0
27/08:30am 27.0 28.9 21.4 71 3.7 ENE 13 19 7 10 1015.6 1015.6 0.0
27/08:00am 26.9 28.0 21.2 71 3.8 NE 17 22 9 12 1015.6 1015.6 0.0
27/07:30am 26.5 26.9 20.6 70 3.9 ENE 19 24 10 13 1015.6 1015.6 0.0
27/07:00am 26.0 26.3 20.7 72 3.5 NE 20 26 11 14 1015.3 1015.3 0.0
27/06:30am 25.6 25.5 20.7 74 3.2 NE 22 28 12 15 1015.0 1015.0 0.0
27/06:00am 25.2 24.6 20.6 75 3.0 NE 24 32 13 17 1014.7 1014.7 0.0
27/05:30am 25.1 24.9 20.5 75 3.0 ENE 22 28 12 15 1014.4 1014.4 0.0
27/05:00am 25.2 25.1 20.8 76 2.9 ENE 22 30 12 16 1014.1 1014.1 0.0
27/04:30am 25.2 25.4 21.3 79 2.6 ENE 22 30 12 16 1014.0 1014.0 0.0
27/04:00am 25.2 25.7 20.8 76 2.9 ENE 19 26 10 14 1014.0 1014.0 0.0
27/03:30am 25.3 25.6 20.7 75 3.0 ENE 20 28 11 15 1014.0 1014.0 0.0
27/03:00am 25.5 26.0 20.9 75 3.0 ENE 19 26 10 14 1013.7 1013.7 0.0
27/02:30am 25.2 25.5 20.8 76 2.9 ENE 20 26 11 14 1013.9 1013.9 0.0
27/02:00am 25.4 26.0 21.3 78 2.7 E 20 28 11 15 1014.0 1014.0 0.0
27/01:30am 25.2 26.1 20.8 76 2.9 E 17 24 9 13 1014.0 1014.0 0.0
27/01:00am 25.3 25.7 20.6 75 3.1 ENE 19 26 10 14 1014.2 1014.2 0.0
27/12:30am 25.2 25.2 19.8 72 3.5 E 19 24 10 13 1014.9 1014.9 0.0
27/12:00am 25.4 25.5 20.0 72 3.5 E 19 26 10 14 1014.9 1014.9 0.0
 
Date/Time
EST
Temp
°C
App
Temp
°C
Dew
Point
Rel
Hum
%
Delta-T
°C
Wind Press
QNH
hPa
Press
MSL
hPa
Rain
since 9 am
mm
Dir
 
Spd
km/h
Gust
km/h
Spd
kts
Gust
kts
26/11:30pm 25.2 25.6 20.6 75 3.0 ENE 19 24 10 13 1015.2 1015.2 0.0
26/11:00pm 24.9 25.2 20.4 76 2.9 ENE 19 26 10 14 1015.4 1015.4 0.0
26/10:30pm 25.0 25.2 20.1 74 3.2 E 19 26 10 14 1015.6 1015.6 0.0
26/10:00pm 25.3 24.9 20.1 73 3.4 ENE 22 30 12 16 1015.5 1015.5 0.0
26/09:30pm 25.4 25.5 20.3 73 3.3 ENE 20 28 11 15 1015.6 1015.6 0.0
26/09:00pm 25.4 25.7 20.5 74 3.2 ENE 19 24 10 13 1015.5 1015.5 0.0
26/08:30pm 25.5 25.7 20.6 74 3.2 ENE 20 28 11 15 1015.2 1015.2 0.0
26/08:00pm 25.5 25.9 20.6 74 3.2 ENE 19 26 10 14 1015.0 1015.0 0.0
26/07:30pm 25.7 25.8 20.3 72 3.5 ENE 20 30 11 16 1014.7 1014.7 0.0
26/07:00pm 25.6 25.4 20.6 74 3.3 ENE 22 30 12 16 1014.4 1014.4 0.0
26/06:30pm 25.7 24.6 20.3 72 3.5 ENE 26 33 14 18 1013.9 1013.9 0.0
26/06:00pm 26.0 24.6 20.5 71 3.6 ENE 28 35 15 19 1013.5 1013.5 0.0
26/05:30pm 26.3 25.9 21.0 72 3.5 ENE 24 32 13 17 1013.5 1013.5 0.0
26/05:00pm 26.7 26.8 21.1 71 3.7 ENE 22 30 12 16 1013.4 1013.4 0.0
26/04:30pm 26.7 26.9 21.3 72 3.6 ENE 22 28 12 15 1013.3 1013.3 0.0
26/04:00pm 26.8 27.5 21.5 72 3.5 ENE 20 28 11 15 1013.1 1013.1 0.0
26/03:30pm 27.4 28.4 21.7 71 3.8 ENE 19 24 10 13 1013.2 1013.2 0.0
26/03:00pm 27.7 28.8 21.9 70 3.9 ENE 19 26 10 14 1013.3 1013.3 0.0
26/02:30pm 27.9 28.6 21.5 68 4.3 NE 20 28 11 15 1013.6 1013.6 0.0
26/02:00pm 28.0 29.1 21.2 66 4.5 ENE 17 24 9 13 1013.8 1013.8 0.0
26/01:30pm 28.1 28.9 21.7 68 4.3 ENE 20 26 11 14 1014.0 1014.0 0.0
26/01:00pm 28.1 28.8 21.5 67 4.4 ENE 20 28 11 15 1014.3 1014.3 0.0
26/12:30pm 28.5 29.9 21.8 67 4.5 ENE 17 24 9 13 1014.5 1014.5 0.0
26/12:00pm 28.3 29.0 21.6 67 4.5 ENE 20 24 11 13 1014.9 1014.9 0.0
26/11:30am 28.4 29.5 22.0 68 4.3 ENE 19 28 10 15 1015.1 1015.1 0.0
26/11:00am 28.0 28.6 21.4 67 4.4 ENE 20 28 11 15 1015.4 1015.4 0.0
26/10:30am 28.0 28.8 21.7 68 4.2 ENE 20 28 11 15 1015.6 1015.6 0.0
26/10:00am 28.0 28.8 21.7 68 4.2 ENE 20 26 11 14 1015.7 1015.7 0.0
26/09:30am 28.0 29.0 21.7 68 4.2 ENE 19 24 10 13 1015.8 1015.8 0.0
26/09:00am 27.5 27.9 21.7 70 3.9 ENE 22 28 12 15 1015.9 1015.9 0.0
26/08:30am 26.8 27.5 22.3 76 3.0 ENE 22 28 12 15 1015.7 1015.7 0.0
26/08:00am 26.9 28.2 22.3 76 3.1 ENE 19 24 10 13 1015.6 1015.6 0.0
26/07:30am 26.6 27.9 22.3 77 2.9 ENE 19 28 10 15 1015.5 1015.5 0.0
26/07:00am 26.3 28.1 22.6 80 2.5 ENE 17 22 9 12 1015.3 1015.3 0.0
26/06:30am 26.1 27.4 22.4 80 2.5 ENE 19 24 10 13 1014.8 1014.8 0.0
26/06:00am 25.8 27.3 22.7 83 2.1 ENE 19 22 10 12 1014.6 1014.6 0.0
26/05:30am 25.4 27.2 22.6 84 1.9 ENE 17 26 9 14 1014.2 1014.2 0.0
26/05:00am 25.2 27.3 22.4 84 1.9 NE 15 20 8 11 1014.0 1014.0 0.0
26/04:30am 25.3 27.3 22.3 83 2.0 ENE 15 22 8 12 1013.9 1013.9 0.0
26/04:00am 25.2 27.5 22.7 86 1.7 NE 15 20 8 11 1013.4 1013.4 0.0
26/03:30am 25.0 28.3 22.5 86 1.7 N 9 11 5 6 1013.0 1013.0 0.0
26/03:00am 24.9 28.2 22.5 86 1.6 N 9 11 5 6 1013.0 1013.0 0.0
26/02:30am 25.4 28.0 22.7 85 1.8 N 13 19 7 10 1012.9 1012.9 0.0
26/02:00am 25.5 26.5 22.8 85 1.8 NNE 22 26 12 14 1012.7 1012.7 0.0
26/01:30am 25.5 27.1 23.3 88 1.5 NNE 20 26 11 14 1012.8 1012.8 0.0
26/01:00am 25.6 27.2 23.2 86 1.6 NE 20 24 11 13 1013.2 1013.2 0.0
26/12:30am 25.7 26.6 23.3 86 1.6 NNE 24 30 13 16 1013.4 1013.4 0.0
26/12:00am 25.9 26.6 23.7 88 1.5 NNE 26 30 14 16 1013.6 1013.6 0.0
 
Date/Time
EST
Temp
°C
App
Temp
°C
Dew
Point
Rel
Hum
%
Delta-T
°C
Wind Press
QNH
hPa
Press
MSL
hPa
Rain
since 9 am
mm
Dir
 
Spd
km/h
Gust
km/h
Spd
kts
Gust
kts
25/11:30pm 25.8 27.6 23.6 88 1.5 NNE 20 26 11 14 1014.2 1014.2 0.0
25/11:00pm 25.8 27.6 23.6 88 1.5 NNE 20 26 11 14 1014.8 1014.8 0.0
25/10:30pm 25.9 27.7 23.6 87 1.6 NNE 20 26 11 14 1015.1 1015.1 0.0
25/10:00pm 26.0 27.9 23.8 88 1.5 NE 20 26 11 14 1015.1 1015.1 0.0
25/09:30pm 26.0 28.1 23.8 88 1.5 NE 19 22 10 12 1014.9 1014.9 0.0
25/09:00pm 26.2 28.2 23.9 87 1.6 NE 20 26 11 14 1014.7 1014.7 0.0
25/08:30pm 26.1 27.9 23.6 86 1.7 NNE 20 26 11 14 1014.4 1014.4 0.0
25/08:00pm 26.4 27.6 23.2 82 2.2 NNE 22 30 12 16 1014.2 1014.2 0.0
25/07:30pm 26.3 28.2 23.5 84 1.9 NE 19 22 10 12 1014.0 1014.0 0.0
25/07:00pm 26.2 28.5 23.4 84 1.9 NE 17 24 9 13 1013.6 1013.6 0.0
25/06:30pm 26.2 28.0 23.3 84 2.0 NE 19 26 10 14 1013.3 1013.3 0.0
25/06:00pm 26.4 27.2 23.2 82 2.2 NE 24 30 13 16 1012.6 1012.6 0.0
25/05:30pm 26.6 27.6 22.9 80 2.5 ENE 22 30 12 16 1012.3 1012.3 0.0
25/05:00pm 26.9 27.9 22.8 78 2.8 ENE 22 28 12 15 1012.3 1012.3 0.0
25/04:30pm 27.2 28.5 22.3 74 3.3 ENE 19 28 10 15 1012.3 1012.3 0.0
25/04:00pm 27.7 29.3 22.2 72 3.7 ENE 17 24 9 13 1012.5 1012.5 0.0
25/03:30pm 27.7 28.8 22.0 71 3.8 ENE 19 24 10 13 1012.4 1012.4 0.0
25/03:00pm 27.8 28.8 21.8 70 4.0 E 19 26 10 14 1012.6 1012.6 0.0
25/02:30pm 28.0 29.0 22.1 70 4.0 ENE 20 28 11 15 1012.8 1012.8 0.0
25/02:00pm 27.9 28.8 21.9 70 4.0 ENE 20 26 11 14 1012.9 1012.9 0.0
25/01:30pm 28.2 29.1 21.5 67 4.5 ENE 19 26 10 14 1013.2 1013.2 0.0
25/01:00pm 28.3 29.6 21.6 67 4.5 ENE 17 22 9 12 1013.6 1013.6 0.0
25/12:30pm 28.9 30.9 21.6 64 4.9 E 13 17 7 9 1013.9 1013.9 0.0
25/12:00pm 28.9 30.8 21.4 64 5.0 E 13 17 7 9 1014.3 1014.3 0.0
25/11:30am 28.7 30.8 21.0 63 5.1 E 11 15 6 8 1014.7 1014.7 0.0
25/11:00am 28.7 31.1 21.5 65 4.8 ENE 11 17 6 9 1015.1 1015.1 0.0
25/10:30am 28.4 30.4 21.5 66 4.6 E 13 19 7 10 1015.4 1015.4 0.0
25/10:00am 28.4 30.4 21.5 66 4.6 ENE 13 17 7 9 1015.5 1015.5 0.0
25/09:30am 27.8 29.7 21.3 67 4.3 ENE 13 19 7 10 1015.6 1015.6 0.0
25/09:00am 27.8 29.6 21.2 67 4.4 ENE 13 19 7 10 1015.8 1015.8 0.0
25/08:30am 27.5 29.3 21.2 68 4.2 E 13 17 7 9 1015.8 1015.8 0.0
25/08:00am 27.9 30.6 21.4 67 4.3 ENE 9 11 5 6 1016.0 1016.0 0.0
25/07:30am 27.1 29.3 21.2 70 3.9 ENE 11 15 6 8 1015.6 1015.6 0.0
25/07:00am 26.0 28.2 21.2 75 3.2 E 11 15 6 8 1015.3 1015.3 0.0
25/06:30am 26.2 28.0 21.2 74 3.3 NE 13 17 7 9 1014.8 1014.8 0.0
25/06:00am 25.4 27.1 21.0 76 2.9 NE 13 19 7 10 1014.5 1014.5 0.0
25/05:30am 24.7 26.3 20.7 78 2.6 NE 13 19 7 10 1014.3 1014.3 0.0
25/05:00am 24.6 25.4 20.6 78 2.6 NNE 17 20 9 11 1014.1 1014.1 0.0
25/04:30am 24.7 25.9 20.7 78 2.6 NNE 15 20 8 11 1014.0 1014.0 0.0
25/04:00am 24.7 25.6 20.9 79 2.5 NE 17 20 9 11 1013.7 1013.7 0.0
25/03:30am 24.8 25.8 21.0 79 2.5 NE 17 22 9 12 1013.4 1013.4 0.0
25/03:00am 24.9 25.4 20.9 78 2.6 NNE 19 22 10 12 1013.4 1013.4 0.0
25/02:30am 25.0 25.4 20.9 78 2.7 NNE 20 26 11 14 1013.5 1013.5 0.0
25/02:00am 25.1 25.4 21.5 80 2.4 NNE 22 30 12 16 1013.7 1013.7 0.0
25/01:30am 25.2 25.9 21.6 80 2.4 NNE 20 26 11 14 1014.0 1014.0 0.0
25/01:00am 25.3 25.7 21.8 81 2.3 NNE 22 26 12 14 1014.1 1014.1 0.0
25/12:30am 25.3 25.2 21.4 79 2.6 NNE 24 30 13 16 1014.3 1014.3 0.0
25/12:00am 24.7 26.5 21.2 81 2.3 N 13 19 7 10 1014.7 1014.7 0.0
 
Date/Time
EST
Temp
°C
App
Temp
°C
Dew
Point
Rel
Hum
%
Delta-T
°C
Wind Press
QNH
hPa
Press
MSL
hPa
Rain
since 9 am
mm
Dir
 
Spd
km/h
Gust
km/h
Spd
kts
Gust
kts
24/11:30pm 24.9 26.6 20.9 78 2.6 N 13 19 7 10 1015.0 1015.0 0.0
24/11:00pm 25.4 25.7 21.6 79 2.5 NNE 22 30 12 16 1015.2 1015.2 0.0
24/10:30pm 25.6 25.6 21.7 79 2.6 NNE 24 28 13 15 1015.4 1015.4 0.0
24/10:00pm 25.8 26.1 21.6 77 2.8 NNE 22 28 12 15 1015.4 1015.4 0.0
24/09:30pm 25.8 26.5 21.6 77 2.8 NNE 20 24 11 13 1015.2 1015.2 0.0
24/09:00pm 25.7 26.1 21.0 75 3.1 NE 20 26 11 14 1015.0 1015.0 0.0
24/08:30pm 25.7 25.6 20.8 74 3.2 NNE 22 30 12 16 1014.7 1014.7 0.0
24/08:00pm 25.8 25.8 20.9 74 3.2 NE 22 28 12 15 1014.5 1014.5 0.0
24/07:30pm 26.0 25.8 21.3 75 3.1 NNE 24 30 13 16 1014.2 1014.2 0.0
24/07:00pm 26.0 26.0 21.6 76 2.9 NNE 24 30 13 16 1014.0 1014.0 0.0
24/06:30pm 26.0 25.2 20.8 73 3.4 NE 26 30 14 16 1013.8 1013.8 0.0
24/06:00pm 26.1 25.5 21.3 75 3.2 NE 26 32 14 17 1013.5 1013.5 0.0
24/05:30pm 26.3 26.2 21.5 75 3.2 NE 24 30 13 16 1013.3 1013.3 0.0
24/05:00pm 26.8 27.0 22.0 75 3.2 NE 24 30 13 16 1013.0 1013.0 0.0
24/04:30pm 26.7 26.5 21.3 72 3.6 NE 24 30 13 16 1012.9 1012.9 0.0
24/04:00pm 26.7 26.7 20.9 70 3.8 ENE 22 28 12 15 1013.2 1013.2 0.0
24/03:30pm 27.6 27.7 21.1 67 4.3 NE 22 26 12 14 1013.2 1013.2 0.0
24/03:00pm 28.0 28.4 21.7 68 4.2 NE 22 26 12 14 1013.4 1013.4 0.0
24/02:30pm 28.3 29.1 21.7 67 4.4 NE 20 24 11 13 1013.9 1013.9 0.0
24/02:00pm 28.3 28.6 21.6 67 4.5 NE 22 32 12 17 1014.3 1014.3 0.0
24/01:30pm 28.4 28.8 21.7 67 4.5 NE 22 28 12 15 1014.5 1014.5 0.0
24/01:00pm 28.4 28.4 21.0 64 4.9 NE 22 28 12 15 1014.9 1014.9 0.0

Other Formats:

Comma delimited format used in spreadsheet applications
http://www.bom.gov.au/fwo/IDQ60801/IDQ60801.94373.axf

JavaScript Object Notation format (JSON) in row-major order
http://www.bom.gov.au/fwo/IDQ60801/IDQ60801.94373.json